sensor_id;sensor_type;location;lat;lon;timestamp;P1;durP1;ratioP1;P2;durP2;ratioP2
7233;SDS011;3658;47.992;10.158;2024-01-06T00:02:01;2.20;;;2.00;;
7233;SDS011;3658;47.992;10.158;2024-01-06T00:04:28;2.37;;;2.17;;
7233;SDS011;3658;47.992;10.158;2024-01-06T00:06:55;2.37;;;2.17;;
7233;SDS011;3658;47.992;10.158;2024-01-06T00:09:21;2.47;;;2.27;;
7233;SDS011;3658;47.992;10.158;2024-01-06T00:11:48;2.33;;;1.97;;
7233;SDS011;3658;47.992;10.158;2024-01-06T00:14:15;2.60;;;2.40;;
7233;SDS011;3658;47.992;10.158;2024-01-06T00:16:43;2.60;;;2.37;;
7233;SDS011;3658;47.992;10.158;2024-01-06T00:19:10;2.53;;;2.30;;
7233;SDS011;3658;47.992;10.158;2024-01-06T00:21:37;2.70;;;2.50;;
7233;SDS011;3658;47.992;10.158;2024-01-06T00:24:04;2.67;;;2.43;;
7233;SDS011;3658;47.992;10.158;2024-01-06T00:26:31;3.20;;;2.60;;
7233;SDS011;3658;47.992;10.158;2024-01-06T00:28:58;2.13;;;1.90;;
7233;SDS011;3658;47.992;10.158;2024-01-06T00:31:24;2.70;;;2.50;;
7233;SDS011;3658;47.992;10.158;2024-01-06T00:33:52;3.43;;;2.67;;
7233;SDS011;3658;47.992;10.158;2024-01-06T00:36:19;2.40;;;2.20;;
7233;SDS011;3658;47.992;10.158;2024-01-06T00:38:52;2.40;;;2.20;;
7233;SDS011;3658;47.992;10.158;2024-01-06T00:41:19;2.70;;;2.33;;
7233;SDS011;3658;47.992;10.158;2024-01-06T00:43:46;2.80;;;2.50;;
7233;SDS011;3658;47.992;10.158;2024-01-06T00:46:13;2.30;;;2.07;;
7233;SDS011;3658;47.992;10.158;2024-01-06T00:48:39;2.30;;;2.10;;
7233;SDS011;3658;47.992;10.158;2024-01-06T00:51:07;2.67;;;2.10;;
7233;SDS011;3658;47.992;10.158;2024-01-06T00:53:34;2.33;;;2.03;;
7233;SDS011;3658;47.992;10.158;2024-01-06T00:56:01;2.20;;;2.00;;
7233;SDS011;3658;47.992;10.158;2024-01-06T00:58:28;2.30;;;2.10;;
7233;SDS011;3658;47.992;10.158;2024-01-06T01:00:55;2.67;;;2.20;;
7233;SDS011;3658;47.992;10.158;2024-01-06T01:03:21;3.50;;;2.40;;
7233;SDS011;3658;47.992;10.158;2024-01-06T01:05:48;2.40;;;2.20;;
7233;SDS011;3658;47.992;10.158;2024-01-06T01:08:16;2.30;;;2.10;;
7233;SDS011;3658;47.992;10.158;2024-01-06T01:10:43;2.87;;;2.17;;
7233;SDS011;3658;47.992;10.158;2024-01-06T01:13:10;2.73;;;2.37;;
7233;SDS011;3658;47.992;10.158;2024-01-06T01:15:37;2.13;;;1.90;;
7233;SDS011;3658;47.992;10.158;2024-01-06T01:18:04;2.30;;;2.10;;
7233;SDS011;3658;47.992;10.158;2024-01-06T01:20:31;2.17;;;1.93;;
7233;SDS011;3658;47.992;10.158;2024-01-06T01:22:57;2.53;;;2.20;;
7233;SDS011;3658;47.992;10.158;2024-01-06T01:25:25;2.50;;;2.10;;
7233;SDS011;3658;47.992;10.158;2024-01-06T01:27:53;2.73;;;2.47;;
7233;SDS011;3658;47.992;10.158;2024-01-06T01:30:19;3.57;;;2.30;;
7233;SDS011;3658;47.992;10.158;2024-01-06T01:32:46;2.83;;;2.23;;
7233;SDS011;3658;47.992;10.158;2024-01-06T01:35:13;2.20;;;2.00;;
7233;SDS011;3658;47.992;10.158;2024-01-06T01:37:40;2.30;;;2.10;;
7233;SDS011;3658;47.992;10.158;2024-01-06T01:40:07;2.30;;;2.10;;
7233;SDS011;3658;47.992;10.158;2024-01-06T01:42:35;2.67;;;1.70;;
7233;SDS011;3658;47.992;10.158;2024-01-06T01:45:03;2.13;;;1.93;;
7233;SDS011;3658;47.992;10.158;2024-01-06T01:47:30;2.10;;;1.90;;
7233;SDS011;3658;47.992;10.158;2024-01-06T01:49:57;1.93;;;1.83;;
7233;SDS011;3658;47.992;10.158;2024-01-06T01:52:24;2.20;;;2.00;;
7233;SDS011;3658;47.992;10.158;2024-01-06T01:54:51;2.70;;;2.50;;
7233;SDS011;3658;47.992;10.158;2024-01-06T01:57:18;2.20;;;2.00;;
7233;SDS011;3658;47.992;10.158;2024-01-06T01:59:48;2.00;;;1.90;;
7233;SDS011;3658;47.992;10.158;2024-01-06T02:02:15;2.10;;;2.00;;
7233;SDS011;3658;47.992;10.158;2024-01-06T02:04:43;2.17;;;1.97;;
7233;SDS011;3658;47.992;10.158;2024-01-06T02:07:11;1.80;;;1.70;;
7233;SDS011;3658;47.992;10.158;2024-01-06T02:09:38;2.10;;;2.00;;
7233;SDS011;3658;47.992;10.158;2024-01-06T02:12:05;1.73;;;1.63;;
7233;SDS011;3658;47.992;10.158;2024-01-06T02:14:32;2.10;;;1.90;;
7233;SDS011;3658;47.992;10.158;2024-01-06T02:17:00;2.30;;;2.03;;
7233;SDS011;3658;47.992;10.158;2024-01-06T02:19:27;2.33;;;2.03;;
7233;SDS011;3658;47.992;10.158;2024-01-06T02:21:55;1.83;;;1.70;;
7233;SDS011;3658;47.992;10.158;2024-01-06T02:24:22;1.70;;;1.60;;
7233;SDS011;3658;47.992;10.158;2024-01-06T02:26:48;2.40;;;1.80;;
7233;SDS011;3658;47.992;10.158;2024-01-06T02:29:15;1.93;;;1.80;;
7233;SDS011;3658;47.992;10.158;2024-01-06T02:31:42;1.87;;;1.77;;
7233;SDS011;3658;47.992;10.158;2024-01-06T02:34:09;1.80;;;1.70;;
7233;SDS011;3658;47.992;10.158;2024-01-06T02:36:35;1.87;;;1.73;;
7233;SDS011;3658;47.992;10.158;2024-01-06T02:39:04;2.00;;;1.80;;
7233;SDS011;3658;47.992;10.158;2024-01-06T02:41:31;1.70;;;1.60;;
7233;SDS011;3658;47.992;10.158;2024-01-06T02:43:58;1.77;;;1.67;;
7233;SDS011;3658;47.992;10.158;2024-01-06T02:46:27;2.47;;;1.93;;
7233;SDS011;3658;47.992;10.158;2024-01-06T02:48:54;1.50;;;1.40;;
7233;SDS011;3658;47.992;10.158;2024-01-06T02:51:21;2.20;;;1.73;;
7233;SDS011;3658;47.992;10.158;2024-01-06T02:53:48;2.20;;;2.00;;
7233;SDS011;3658;47.992;10.158;2024-01-06T02:56:16;2.00;;;1.80;;
7233;SDS011;3658;47.992;10.158;2024-01-06T02:58:42;2.70;;;1.70;;
7233;SDS011;3658;47.992;10.158;2024-01-06T03:01:10;1.60;;;1.50;;
7233;SDS011;3658;47.992;10.158;2024-01-06T03:03:37;1.77;;;1.53;;
7233;SDS011;3658;47.992;10.158;2024-01-06T03:06:04;1.40;;;1.30;;
7233;SDS011;3658;47.992;10.158;2024-01-06T03:08:31;1.57;;;1.47;;
7233;SDS011;3658;47.992;10.158;2024-01-06T03:10:59;1.60;;;1.50;;
7233;SDS011;3658;47.992;10.158;2024-01-06T03:13:28;1.40;;;1.30;;
7233;SDS011;3658;47.992;10.158;2024-01-06T03:15:55;1.60;;;1.43;;
7233;SDS011;3658;47.992;10.158;2024-01-06T03:18:22;2.83;;;1.70;;
7233;SDS011;3658;47.992;10.158;2024-01-06T03:20:48;1.70;;;1.60;;
7233;SDS011;3658;47.992;10.158;2024-01-06T03:23:15;1.67;;;1.57;;
7233;SDS011;3658;47.992;10.158;2024-01-06T03:25:42;1.67;;;1.57;;
7233;SDS011;3658;47.992;10.158;2024-01-06T03:28:08;1.77;;;1.30;;
7233;SDS011;3658;47.992;10.158;2024-01-06T03:30:37;1.53;;;1.43;;
7233;SDS011;3658;47.992;10.158;2024-01-06T03:33:03;1.40;;;1.30;;
7233;SDS011;3658;47.992;10.158;2024-01-06T03:35:30;1.60;;;1.50;;
7233;SDS011;3658;47.992;10.158;2024-01-06T03:37:57;1.50;;;1.40;;
7233;SDS011;3658;47.992;10.158;2024-01-06T03:40:24;1.60;;;1.50;;
7233;SDS011;3658;47.992;10.158;2024-01-06T03:42:50;1.43;;;1.33;;
7233;SDS011;3658;47.992;10.158;2024-01-06T03:45:18;1.50;;;1.40;;
7233;SDS011;3658;47.992;10.158;2024-01-06T03:47:47;1.40;;;1.30;;
7233;SDS011;3658;47.992;10.158;2024-01-06T03:50:14;1.60;;;1.50;;
7233;SDS011;3658;47.992;10.158;2024-01-06T03:52:41;1.60;;;1.50;;
7233;SDS011;3658;47.992;10.158;2024-01-06T03:55:07;1.70;;;1.50;;
7233;SDS011;3658;47.992;10.158;2024-01-06T03:57:34;1.77;;;1.67;;
7233;SDS011;3658;47.992;10.158;2024-01-06T04:00:01;1.40;;;1.30;;
7233;SDS011;3658;47.992;10.158;2024-01-06T04:02:28;1.30;;;1.20;;
7233;SDS011;3658;47.992;10.158;2024-01-06T04:04:56;1.37;;;1.27;;
7233;SDS011;3658;47.992;10.158;2024-01-06T04:07:23;1.30;;;1.20;;
7233;SDS011;3658;47.992;10.158;2024-01-06T04:09:50;1.33;;;1.23;;
7233;SDS011;3658;47.992;10.158;2024-01-06T04:12:17;1.60;;;1.50;;
7233;SDS011;3658;47.992;10.158;2024-01-06T04:14:44;1.30;;;1.20;;
7233;SDS011;3658;47.992;10.158;2024-01-06T04:17:10;1.50;;;1.40;;
7233;SDS011;3658;47.992;10.158;2024-01-06T04:19:37;1.47;;;1.30;;
7233;SDS011;3658;47.992;10.158;2024-01-06T04:22:05;1.47;;;1.20;;
7233;SDS011;3658;47.992;10.158;2024-01-06T04:24:32;1.53;;;1.37;;
7233;SDS011;3658;47.992;10.158;2024-01-06T04:27:02;1.47;;;1.20;;
7233;SDS011;3658;47.992;10.158;2024-01-06T04:29:29;1.77;;;1.47;;
7233;SDS011;3658;47.992;10.158;2024-01-06T04:31:56;1.30;;;1.20;;
7233;SDS011;3658;47.992;10.158;2024-01-06T04:34:23;1.43;;;1.27;;
7233;SDS011;3658;47.992;10.158;2024-01-06T04:36:49;1.30;;;1.20;;
7233;SDS011;3658;47.992;10.158;2024-01-06T04:39:17;1.57;;;1.40;;
7233;SDS011;3658;47.992;10.158;2024-01-06T04:41:44;1.50;;;1.40;;
7233;SDS011;3658;47.992;10.158;2024-01-06T04:44:11;1.40;;;1.30;;
7233;SDS011;3658;47.992;10.158;2024-01-06T04:46:38;1.50;;;1.40;;
7233;SDS011;3658;47.992;10.158;2024-01-06T04:49:04;1.20;;;1.10;;
7233;SDS011;3658;47.992;10.158;2024-01-06T04:51:31;1.37;;;1.27;;
7233;SDS011;3658;47.992;10.158;2024-01-06T04:53:58;1.83;;;1.23;;
7233;SDS011;3658;47.992;10.158;2024-01-06T04:56:26;1.30;;;1.20;;
7233;SDS011;3658;47.992;10.158;2024-01-06T04:58:53;1.30;;;1.20;;
7233;SDS011;3658;47.992;10.158;2024-01-06T05:01:20;1.47;;;1.27;;
7233;SDS011;3658;47.992;10.158;2024-01-06T05:03:47;0.97;;;0.97;;
7233;SDS011;3658;47.992;10.158;2024-01-06T05:06:14;1.30;;;1.20;;
7233;SDS011;3658;47.992;10.158;2024-01-06T05:08:41;1.30;;;1.20;;
7233;SDS011;3658;47.992;10.158;2024-01-06T05:11:09;1.37;;;1.27;;
7233;SDS011;3658;47.992;10.158;2024-01-06T05:13:38;1.37;;;1.27;;
7233;SDS011;3658;47.992;10.158;2024-01-06T05:16:05;1.20;;;1.10;;
7233;SDS011;3658;47.992;10.158;2024-01-06T05:18:33;1.10;;;1.10;;
7233;SDS011;3658;47.992;10.158;2024-01-06T05:21:00;2.50;;;1.30;;
7233;SDS011;3658;47.992;10.158;2024-01-06T05:23:28;1.10;;;1.10;;
7233;SDS011;3658;47.992;10.158;2024-01-06T05:25:55;1.37;;;1.20;;
7233;SDS011;3658;47.992;10.158;2024-01-06T05:28:21;1.10;;;1.00;;
7233;SDS011;3658;47.992;10.158;2024-01-06T05:30:49;1.07;;;1.00;;
7233;SDS011;3658;47.992;10.158;2024-01-06T05:33:16;1.20;;;1.10;;
7233;SDS011;3658;47.992;10.158;2024-01-06T05:35:43;1.10;;;1.00;;
7233;SDS011;3658;47.992;10.158;2024-01-06T05:38:10;1.07;;;1.03;;
7233;SDS011;3658;47.992;10.158;2024-01-06T05:40:36;1.20;;;1.10;;
7233;SDS011;3658;47.992;10.158;2024-01-06T05:43:03;1.30;;;1.20;;
7233;SDS011;3658;47.992;10.158;2024-01-06T05:45:30;1.07;;;1.07;;
7233;SDS011;3658;47.992;10.158;2024-01-06T05:47:58;1.33;;;0.90;;
7233;SDS011;3658;47.992;10.158;2024-01-06T05:50:25;1.30;;;1.20;;
7233;SDS011;3658;47.992;10.158;2024-01-06T05:52:52;1.00;;;1.00;;
7233;SDS011;3658;47.992;10.158;2024-01-06T05:55:19;1.03;;;1.00;;
7233;SDS011;3658;47.992;10.158;2024-01-06T05:57:47;1.13;;;1.03;;
7233;SDS011;3658;47.992;10.158;2024-01-06T06:00:14;1.20;;;1.10;;
7233;SDS011;3658;47.992;10.158;2024-01-06T06:02:41;1.20;;;1.10;;
7233;SDS011;3658;47.992;10.158;2024-01-06T06:05:09;1.10;;;1.00;;
7233;SDS011;3658;47.992;10.158;2024-01-06T06:07:36;1.60;;;1.00;;
7233;SDS011;3658;47.992;10.158;2024-01-06T06:10:05;1.30;;;1.20;;
7233;SDS011;3658;47.992;10.158;2024-01-06T06:12:33;1.00;;;1.00;;
7233;SDS011;3658;47.992;10.158;2024-01-06T06:15:00;0.93;;;0.93;;
7233;SDS011;3658;47.992;10.158;2024-01-06T06:17:28;1.10;;;1.00;;
7233;SDS011;3658;47.992;10.158;2024-01-06T06:19:55;1.23;;;1.00;;
7233;SDS011;3658;47.992;10.158;2024-01-06T06:22:24;1.07;;;0.97;;
7233;SDS011;3658;47.992;10.158;2024-01-06T06:24:55;1.17;;;1.10;;
7233;SDS011;3658;47.992;10.158;2024-01-06T06:27:21;1.40;;;1.10;;
7233;SDS011;3658;47.992;10.158;2024-01-06T06:29:48;1.10;;;1.00;;
7233;SDS011;3658;47.992;10.158;2024-01-06T06:32:15;1.20;;;1.10;;
7233;SDS011;3658;47.992;10.158;2024-01-06T06:34:42;1.00;;;1.00;;
7233;SDS011;3658;47.992;10.158;2024-01-06T06:37:09;1.47;;;1.10;;
7233;SDS011;3658;47.992;10.158;2024-01-06T06:39:37;1.00;;;1.00;;
7233;SDS011;3658;47.992;10.158;2024-01-06T06:42:04;1.10;;;1.10;;
7233;SDS011;3658;47.992;10.158;2024-01-06T06:44:31;1.07;;;0.90;;
7233;SDS011;3658;47.992;10.158;2024-01-06T06:46:58;1.20;;;1.10;;
7233;SDS011;3658;47.992;10.158;2024-01-06T06:49:24;1.13;;;1.03;;
7233;SDS011;3658;47.992;10.158;2024-01-06T06:51:51;1.10;;;1.00;;
7233;SDS011;3658;47.992;10.158;2024-01-06T06:54:18;1.37;;;1.00;;
7233;SDS011;3658;47.992;10.158;2024-01-06T06:56:46;0.90;;;0.90;;
7233;SDS011;3658;47.992;10.158;2024-01-06T06:59:13;0.80;;;0.80;;
7233;SDS011;3658;47.992;10.158;2024-01-06T07:01:40;1.07;;;1.00;;
7233;SDS011;3658;47.992;10.158;2024-01-06T07:04:07;1.20;;;1.10;;
7233;SDS011;3658;47.992;10.158;2024-01-06T07:06:33;0.90;;;0.90;;
7233;SDS011;3658;47.992;10.158;2024-01-06T07:09:00;0.97;;;0.90;;
7233;SDS011;3658;47.992;10.158;2024-01-06T07:11:28;0.90;;;0.90;;
7233;SDS011;3658;47.992;10.158;2024-01-06T07:13:56;1.00;;;1.00;;
7233;SDS011;3658;47.992;10.158;2024-01-06T07:16:23;0.90;;;0.90;;
7233;SDS011;3658;47.992;10.158;2024-01-06T07:18:49;0.90;;;0.90;;
7233;SDS011;3658;47.992;10.158;2024-01-06T07:21:16;0.90;;;0.90;;
7233;SDS011;3658;47.992;10.158;2024-01-06T07:23:43;1.03;;;1.00;;
7233;SDS011;3658;47.992;10.158;2024-01-06T07:26:10;1.07;;;1.00;;
7233;SDS011;3658;47.992;10.158;2024-01-06T07:28:36;0.90;;;0.90;;
7233;SDS011;3658;47.992;10.158;2024-01-06T07:31:04;1.10;;;1.00;;
7233;SDS011;3658;47.992;10.158;2024-01-06T07:33:31;1.20;;;1.07;;
7233;SDS011;3658;47.992;10.158;2024-01-06T07:35:58;1.20;;;1.00;;
7233;SDS011;3658;47.992;10.158;2024-01-06T07:38:25;1.40;;;0.90;;
7233;SDS011;3658;47.992;10.158;2024-01-06T07:40:53;1.20;;;1.10;;
7233;SDS011;3658;47.992;10.158;2024-01-06T07:43:20;3.10;;;1.10;;
7233;SDS011;3658;47.992;10.158;2024-01-06T07:45:48;2.20;;;1.00;;
7233;SDS011;3658;47.992;10.158;2024-01-06T07:48:17;0.90;;;0.90;;
7233;SDS011;3658;47.992;10.158;2024-01-06T07:50:44;1.30;;;1.00;;
7233;SDS011;3658;47.992;10.158;2024-01-06T07:53:11;2.30;;;1.10;;
7233;SDS011;3658;47.992;10.158;2024-01-06T07:55:38;1.13;;;0.90;;
7233;SDS011;3658;47.992;10.158;2024-01-06T07:58:05;1.23;;;1.00;;
7233;SDS011;3658;47.992;10.158;2024-01-06T08:00:32;1.00;;;1.00;;
7233;SDS011;3658;47.992;10.158;2024-01-06T08:02:59;1.57;;;1.40;;
7233;SDS011;3658;47.992;10.158;2024-01-06T08:05:27;1.80;;;1.30;;
7233;SDS011;3658;47.992;10.158;2024-01-06T08:07:54;1.13;;;1.00;;
7233;SDS011;3658;47.992;10.158;2024-01-06T08:10:21;1.00;;;1.00;;
7233;SDS011;3658;47.992;10.158;2024-01-06T08:12:47;1.00;;;1.00;;
7233;SDS011;3658;47.992;10.158;2024-01-06T08:15:14;1.20;;;1.10;;
7233;SDS011;3658;47.992;10.158;2024-01-06T08:17:41;2.60;;;0.97;;
7233;SDS011;3658;47.992;10.158;2024-01-06T08:20:08;1.30;;;1.20;;
7233;SDS011;3658;47.992;10.158;2024-01-06T08:22:37;0.90;;;0.90;;
7233;SDS011;3658;47.992;10.158;2024-01-06T08:25:04;1.20;;;1.10;;
7233;SDS011;3658;47.992;10.158;2024-01-06T08:27:32;1.00;;;1.00;;
7233;SDS011;3658;47.992;10.158;2024-01-06T08:30:00;0.90;;;0.90;;
7233;SDS011;3658;47.992;10.158;2024-01-06T08:32:27;1.10;;;1.00;;
7233;SDS011;3658;47.992;10.158;2024-01-06T08:34:54;2.23;;;1.47;;
7233;SDS011;3658;47.992;10.158;2024-01-06T08:37:20;1.20;;;1.10;;
7233;SDS011;3658;47.992;10.158;2024-01-06T08:39:48;1.10;;;1.00;;
7233;SDS011;3658;47.992;10.158;2024-01-06T08:42:18;1.03;;;0.93;;
7233;SDS011;3658;47.992;10.158;2024-01-06T08:44:45;1.30;;;1.20;;
7233;SDS011;3658;47.992;10.158;2024-01-06T08:47:12;1.03;;;1.03;;
7233;SDS011;3658;47.992;10.158;2024-01-06T08:49:39;1.10;;;1.00;;
7233;SDS011;3658;47.992;10.158;2024-01-06T08:52:05;1.00;;;1.00;;
7233;SDS011;3658;47.992;10.158;2024-01-06T08:54:32;1.10;;;1.00;;
7233;SDS011;3658;47.992;10.158;2024-01-06T08:57:01;1.50;;;1.20;;
7233;SDS011;3658;47.992;10.158;2024-01-06T08:59:28;2.10;;;1.13;;
7233;SDS011;3658;47.992;10.158;2024-01-06T09:01:54;1.20;;;1.10;;
7233;SDS011;3658;47.992;10.158;2024-01-06T09:04:21;0.77;;;0.77;;
7233;SDS011;3658;47.992;10.158;2024-01-06T09:06:48;0.83;;;0.83;;
7233;SDS011;3658;47.992;10.158;2024-01-06T09:09:15;1.27;;;1.00;;
7233;SDS011;3658;47.992;10.158;2024-01-06T09:11:42;1.00;;;1.00;;
7233;SDS011;3658;47.992;10.158;2024-01-06T09:14:12;1.20;;;1.10;;
7233;SDS011;3658;47.992;10.158;2024-01-06T09:16:39;1.30;;;1.20;;
7233;SDS011;3658;47.992;10.158;2024-01-06T09:19:06;1.00;;;1.00;;
7233;SDS011;3658;47.992;10.158;2024-01-06T09:21:34;1.27;;;1.17;;
7233;SDS011;3658;47.992;10.158;2024-01-06T09:24:01;1.00;;;1.00;;
7233;SDS011;3658;47.992;10.158;2024-01-06T09:26:31;1.30;;;1.20;;
7233;SDS011;3658;47.992;10.158;2024-01-06T09:29:00;1.00;;;0.90;;
7233;SDS011;3658;47.992;10.158;2024-01-06T09:31:29;1.30;;;1.20;;
7233;SDS011;3658;47.992;10.158;2024-01-06T09:33:55;1.00;;;1.00;;
7233;SDS011;3658;47.992;10.158;2024-01-06T09:36:26;1.30;;;1.20;;
7233;SDS011;3658;47.992;10.158;2024-01-06T09:38:53;1.10;;;1.00;;
7233;SDS011;3658;47.992;10.158;2024-01-06T09:41:20;1.17;;;1.10;;
7233;SDS011;3658;47.992;10.158;2024-01-06T09:43:47;2.20;;;1.13;;
7233;SDS011;3658;47.992;10.158;2024-01-06T09:46:15;1.30;;;1.20;;
7233;SDS011;3658;47.992;10.158;2024-01-06T09:48:49;1.00;;;1.00;;
7233;SDS011;3658;47.992;10.158;2024-01-06T09:51:19;1.03;;;1.00;;
7233;SDS011;3658;47.992;10.158;2024-01-06T09:53:48;1.20;;;1.10;;
7233;SDS011;3658;47.992;10.158;2024-01-06T09:56:16;1.10;;;1.00;;
7233;SDS011;3658;47.992;10.158;2024-01-06T09:58:43;1.00;;;0.90;;
7233;SDS011;3658;47.992;10.158;2024-01-06T10:01:10;1.33;;;1.23;;
7233;SDS011;3658;47.992;10.158;2024-01-06T10:03:39;1.23;;;1.07;;
7233;SDS011;3658;47.992;10.158;2024-01-06T10:06:07;1.13;;;1.03;;
7233;SDS011;3658;47.992;10.158;2024-01-06T10:08:35;1.77;;;1.33;;
7233;SDS011;3658;47.992;10.158;2024-01-06T10:11:01;1.20;;;1.10;;
7233;SDS011;3658;47.992;10.158;2024-01-06T10:13:28;1.20;;;1.10;;
7233;SDS011;3658;47.992;10.158;2024-01-06T10:15:55;1.30;;;1.20;;
7233;SDS011;3658;47.992;10.158;2024-01-06T10:18:23;1.00;;;1.00;;
7233;SDS011;3658;47.992;10.158;2024-01-06T10:20:51;1.20;;;1.10;;
7233;SDS011;3658;47.992;10.158;2024-01-06T10:23:20;1.20;;;1.10;;
7233;SDS011;3658;47.992;10.158;2024-01-06T10:25:49;1.53;;;1.10;;
7233;SDS011;3658;47.992;10.158;2024-01-06T10:28:18;1.73;;;1.30;;
7233;SDS011;3658;47.992;10.158;2024-01-06T10:30:46;1.30;;;1.20;;
7233;SDS011;3658;47.992;10.158;2024-01-06T10:33:14;1.03;;;1.00;;
7233;SDS011;3658;47.992;10.158;2024-01-06T10:35:40;1.30;;;1.20;;
7233;SDS011;3658;47.992;10.158;2024-01-06T10:38:09;1.23;;;1.10;;
7233;SDS011;3658;47.992;10.158;2024-01-06T10:40:38;1.40;;;1.30;;
7233;SDS011;3658;47.992;10.158;2024-01-06T10:43:05;1.40;;;1.30;;
7233;SDS011;3658;47.992;10.158;2024-01-06T10:45:33;1.20;;;1.10;;
7233;SDS011;3658;47.992;10.158;2024-01-06T10:48:00;1.33;;;1.23;;
7233;SDS011;3658;47.992;10.158;2024-01-06T10:50:29;1.50;;;1.40;;
7233;SDS011;3658;47.992;10.158;2024-01-06T10:52:56;1.50;;;1.40;;
7233;SDS011;3658;47.992;10.158;2024-01-06T10:55:24;1.30;;;1.20;;
7233;SDS011;3658;47.992;10.158;2024-01-06T10:57:54;1.33;;;1.23;;
7233;SDS011;3658;47.992;10.158;2024-01-06T11:00:22;1.50;;;1.40;;
7233;SDS011;3658;47.992;10.158;2024-01-06T11:02:49;1.27;;;1.17;;
7233;SDS011;3658;47.992;10.158;2024-01-06T11:05:17;1.47;;;1.37;;
7233;SDS011;3658;47.992;10.158;2024-01-06T11:07:46;1.40;;;1.30;;
7233;SDS011;3658;47.992;10.158;2024-01-06T11:10:17;1.20;;;1.10;;
7233;SDS011;3658;47.992;10.158;2024-01-06T11:12:44;1.40;;;1.30;;
7233;SDS011;3658;47.992;10.158;2024-01-06T11:15:21;1.43;;;1.33;;
7233;SDS011;3658;47.992;10.158;2024-01-06T11:18:05;1.20;;;1.10;;
7233;SDS011;3658;47.992;10.158;2024-01-06T11:20:32;1.07;;;1.03;;
7233;SDS011;3658;47.992;10.158;2024-01-06T11:23:16;1.20;;;1.10;;
7233;SDS011;3658;47.992;10.158;2024-01-06T11:25:45;1.30;;;1.20;;
7233;SDS011;3658;47.992;10.158;2024-01-06T11:28:12;1.47;;;1.37;;
7233;SDS011;3658;47.992;10.158;2024-01-06T11:30:40;1.40;;;1.20;;
7233;SDS011;3658;47.992;10.158;2024-01-06T11:33:08;1.30;;;1.20;;
7233;SDS011;3658;47.992;10.158;2024-01-06T11:35:36;1.30;;;1.20;;
7233;SDS011;3658;47.992;10.158;2024-01-06T11:38:06;1.30;;;1.20;;
7233;SDS011;3658;47.992;10.158;2024-01-06T11:40:33;1.30;;;1.13;;
7233;SDS011;3658;47.992;10.158;2024-01-06T11:43:02;1.40;;;1.30;;
7233;SDS011;3658;47.992;10.158;2024-01-06T11:45:32;1.40;;;1.30;;
7233;SDS011;3658;47.992;10.158;2024-01-06T11:48:01;1.33;;;1.20;;
7233;SDS011;3658;47.992;10.158;2024-01-06T11:50:29;1.40;;;1.30;;
7233;SDS011;3658;47.992;10.158;2024-01-06T11:52:58;1.27;;;1.17;;
7233;SDS011;3658;47.992;10.158;2024-01-06T11:55:25;1.20;;;1.10;;
7233;SDS011;3658;47.992;10.158;2024-01-06T11:57:54;1.40;;;1.30;;
7233;SDS011;3658;47.992;10.158;2024-01-06T12:00:22;1.17;;;1.07;;
7233;SDS011;3658;47.992;10.158;2024-01-06T12:02:49;1.20;;;1.10;;
7233;SDS011;3658;47.992;10.158;2024-01-06T12:05:22;1.20;;;1.10;;
7233;SDS011;3658;47.992;10.158;2024-01-06T12:07:54;1.30;;;1.20;;
7233;SDS011;3658;47.992;10.158;2024-01-06T12:10:21;1.20;;;1.10;;
7233;SDS011;3658;47.992;10.158;2024-01-06T12:12:55;1.20;;;1.10;;
7233;SDS011;3658;47.992;10.158;2024-01-06T12:15:24;1.30;;;1.20;;
7233;SDS011;3658;47.992;10.158;2024-01-06T12:17:51;1.37;;;1.27;;
7233;SDS011;3658;47.992;10.158;2024-01-06T12:20:18;1.43;;;1.30;;
7233;SDS011;3658;47.992;10.158;2024-01-06T12:22:47;1.27;;;1.00;;
7233;SDS011;3658;47.992;10.158;2024-01-06T12:25:14;1.30;;;1.20;;
7233;SDS011;3658;47.992;10.158;2024-01-06T12:27:42;1.30;;;1.20;;
7233;SDS011;3658;47.992;10.158;2024-01-06T12:30:12;4.63;;;1.17;;
7233;SDS011;3658;47.992;10.158;2024-01-06T12:32:40;1.17;;;1.13;;
7233;SDS011;3658;47.992;10.158;2024-01-06T12:35:08;1.27;;;1.00;;
7233;SDS011;3658;47.992;10.158;2024-01-06T12:37:36;2.40;;;0.70;;
7233;SDS011;3658;47.992;10.158;2024-01-06T12:40:05;2.07;;;1.10;;
7233;SDS011;3658;47.992;10.158;2024-01-06T12:42:35;1.07;;;1.00;;
7233;SDS011;3658;47.992;10.158;2024-01-06T12:45:03;4.80;;;1.43;;
7233;SDS011;3658;47.992;10.158;2024-01-06T12:47:30;1.20;;;1.10;;
7233;SDS011;3658;47.992;10.158;2024-01-06T12:49:57;1.43;;;1.17;;
7233;SDS011;3658;47.992;10.158;2024-01-06T12:52:24;1.23;;;1.13;;
7233;SDS011;3658;47.992;10.158;2024-01-06T12:54:51;1.20;;;1.10;;
7233;SDS011;3658;47.992;10.158;2024-01-06T12:57:19;2.83;;;1.13;;
7233;SDS011;3658;47.992;10.158;2024-01-06T12:59:46;3.37;;;1.33;;
7233;SDS011;3658;47.992;10.158;2024-01-06T13:02:13;3.67;;;1.50;;
7233;SDS011;3658;47.992;10.158;2024-01-06T13:04:40;2.80;;;1.10;;
7233;SDS011;3658;47.992;10.158;2024-01-06T13:07:06;2.70;;;1.33;;
7233;SDS011;3658;47.992;10.158;2024-01-06T13:09:33;6.13;;;1.40;;
7233;SDS011;3658;47.992;10.158;2024-01-06T13:12:00;3.47;;;1.33;;
7233;SDS011;3658;47.992;10.158;2024-01-06T13:14:28;4.07;;;1.40;;
7233;SDS011;3658;47.992;10.158;2024-01-06T13:16:56;2.17;;;1.60;;
7233;SDS011;3658;47.992;10.158;2024-01-06T13:19:23;4.80;;;1.30;;
7233;SDS011;3658;47.992;10.158;2024-01-06T13:21:52;4.57;;;1.30;;
7233;SDS011;3658;47.992;10.158;2024-01-06T13:24:18;3.37;;;1.43;;
7233;SDS011;3658;47.992;10.158;2024-01-06T13:26:45;1.30;;;1.20;;
7233;SDS011;3658;47.992;10.158;2024-01-06T13:29:13;1.70;;;1.23;;
7233;SDS011;3658;47.992;10.158;2024-01-06T13:31:41;3.27;;;1.20;;
7233;SDS011;3658;47.992;10.158;2024-01-06T13:34:09;3.17;;;1.40;;
7233;SDS011;3658;47.992;10.158;2024-01-06T13:36:36;2.50;;;1.40;;
7233;SDS011;3658;47.992;10.158;2024-01-06T13:39:03;2.87;;;1.73;;
7233;SDS011;3658;47.992;10.158;2024-01-06T13:41:31;4.00;;;3.27;;
7233;SDS011;3658;47.992;10.158;2024-01-06T13:43:58;4.50;;;3.73;;
7233;SDS011;3658;47.992;10.158;2024-01-06T13:46:25;4.37;;;3.37;;
7233;SDS011;3658;47.992;10.158;2024-01-06T13:48:53;4.73;;;3.03;;
7233;SDS011;3658;47.992;10.158;2024-01-06T13:51:20;2.93;;;2.60;;
7233;SDS011;3658;47.992;10.158;2024-01-06T13:53:47;3.37;;;3.07;;
7233;SDS011;3658;47.992;10.158;2024-01-06T13:56:14;4.33;;;3.30;;
7233;SDS011;3658;47.992;10.158;2024-01-06T13:58:41;5.13;;;4.03;;
7233;SDS011;3658;47.992;10.158;2024-01-06T14:01:07;10.63;;;7.30;;
7233;SDS011;3658;47.992;10.158;2024-01-06T14:03:36;13.13;;;7.90;;
7233;SDS011;3658;47.992;10.158;2024-01-06T14:06:04;13.43;;;11.00;;
7233;SDS011;3658;47.992;10.158;2024-01-06T14:08:32;12.03;;;9.07;;
7233;SDS011;3658;47.992;10.158;2024-01-06T14:10:59;12.57;;;9.43;;
7233;SDS011;3658;47.992;10.158;2024-01-06T14:13:26;9.20;;;8.30;;
7233;SDS011;3658;47.992;10.158;2024-01-06T14:15:52;8.93;;;8.03;;
7233;SDS011;3658;47.992;10.158;2024-01-06T14:18:19;9.57;;;7.83;;
7233;SDS011;3658;47.992;10.158;2024-01-06T14:20:46;10.43;;;8.30;;
7233;SDS011;3658;47.992;10.158;2024-01-06T14:23:14;8.33;;;7.17;;
7233;SDS011;3658;47.992;10.158;2024-01-06T14:25:41;10.63;;;6.83;;
7233;SDS011;3658;47.992;10.158;2024-01-06T14:28:08;8.57;;;6.70;;
7233;SDS011;3658;47.992;10.158;2024-01-06T14:30:35;8.53;;;6.53;;
7233;SDS011;3658;47.992;10.158;2024-01-06T14:33:02;8.20;;;6.47;;
7233;SDS011;3658;47.992;10.158;2024-01-06T14:35:28;7.30;;;6.03;;
7233;SDS011;3658;47.992;10.158;2024-01-06T14:37:55;6.40;;;5.80;;
7233;SDS011;3658;47.992;10.158;2024-01-06T14:40:23;6.67;;;5.97;;
7233;SDS011;3658;47.992;10.158;2024-01-06T14:42:51;7.27;;;5.10;;
7233;SDS011;3658;47.992;10.158;2024-01-06T14:45:18;7.43;;;5.50;;
7233;SDS011;3658;47.992;10.158;2024-01-06T14:47:45;5.93;;;5.27;;
7233;SDS011;3658;47.992;10.158;2024-01-06T14:50:12;7.93;;;5.87;;
7233;SDS011;3658;47.992;10.158;2024-01-06T14:52:39;8.17;;;5.00;;
7233;SDS011;3658;47.992;10.158;2024-01-06T14:55:05;8.00;;;5.03;;
7233;SDS011;3658;47.992;10.158;2024-01-06T14:57:34;10.40;;;5.60;;
7233;SDS011;3658;47.992;10.158;2024-01-06T15:00:01;7.23;;;4.80;;
7233;SDS011;3658;47.992;10.158;2024-01-06T15:02:28;7.10;;;5.73;;